Time;durP1;ratioP1;P1;durP2;ratioP2;P2;SDS_P1;SDS_P2;PMS_P1;PMS_P2;Temp;Humidity;BMP_temperature;BMP_pressure;BME280_temperature;BME280_humidity;BME280_pressure;Samples;Min_cycle;Max_cycle;Signal;HPM_P1;HPM_P2
2022/01/31 00:00:09;;;;;;;;;;;;;;;;;;1034666;28;983;-42
2022/01/31 00:00:43;;;;;;;;;;;;;;;;;;1034684;28;702;-42
2022/01/31 00:01:14;;;;;;;;;;;;;;;;;;1034869;28;965;-42
2022/01/31 00:01:45;;;;;;;;;;;;;;;;;;1034647;28;956;-42
2022/01/31 00:02:15;;;;;;;;;;;;;;;;;;1034802;28;949;-42
2022/01/31 00:02:47;;;;;;;;;;;;;;;;;;1034885;28;997;-42
2022/01/31 00:03:17;;;;;;;;;;;;;;;;;;1034649;28;779;-42
2022/01/31 00:03:47;;;;;;;;;;;;;;;;;;1034896;28;1089;-41
2022/01/31 00:04:17;;;;;;;;;;;;;;;;;;1034727;28;962;-42
2022/01/31 00:04:48;;;;;;;;;;;;;;;;;;1034863;28;811;-41
2022/01/31 00:05:18;;;;;;;;;;;;;;;;;;1034796;28;929;-41
2022/01/31 00:05:49;;;;;;;;;;;;;;;;;;1034603;28;885;-41
2022/01/31 00:06:19;;;;;;;;;;;;;;;;;;1034836;28;965;-42
2022/01/31 00:06:50;;;;;;;;;;;;;;;;;;1034710;28;918;-41
2022/01/31 00:07:20;;;;;;;;;;;;;;;;;;1034753;28;855;-42
2022/01/31 00:07:50;;;;;;;;;;;;;;;;;;1034881;28;1055;-41
2022/01/31 00:08:23;;;;;;;;;;;;;;;;;;1035018;28;890;-42
2022/01/31 00:08:54;;;;;;;;;;;;;;;;;;1035697;28;897;-41
2022/01/31 00:09:25;;;;;;;;;;;;;;;;;;1031216;28;891;-41
2022/01/31 00:09:56;;;;;;;;;;;;;;;;;;1030988;28;1664;-41
2022/01/31 00:10:30;;;;;;;;;;;;;;;;;;1031174;28;947;-41
2022/01/31 00:11:01;;;;;;;;;;;;;;;;;;1031945;28;906;-41
2022/01/31 00:11:33;;;;;;;;;;;;;;;;;;1035559;28;917;-42
2022/01/31 00:12:08;;;;;;;;;;;;;;;;;;1035700;28;969;-42
2022/01/31 00:12:58;;;;;;;;;;;;;;;;;;1035390;28;1052;-41
2022/01/31 00:13:36;;;;;;;;;;;;;;;;;;1035369;28;1018;-42
2022/01/31 00:14:15;;;;;;;;;;;;;;;;;;1035441;28;964;-40
2022/01/31 00:14:49;;;;;;;;;;;;;;;;;;1035765;28;889;-41
2022/01/31 00:15:19;;;;;;;;;;;;;;;;;;1035522;28;1079;-41
2022/01/31 00:15:55;;;;;;;;;;;;;;;;;;1035470;28;875;-42
2022/01/31 00:16:31;;;;;;;;;;;;;;;;;;1035630;28;794;-42
2022/01/31 00:17:02;;;;;;;;;;;;;;;;;;1035730;28;968;-41
2022/01/31 00:17:32;;;;;;;;;;;;;;;;;;1035244;28;1061;-42
2022/01/31 00:18:02;;;;;;;;;;;;;;;;;;1035644;28;962;-41
2022/01/31 00:18:33;;;;;;;;;;;;;;;;;;1035449;28;994;-42
2022/01/31 00:19:03;;;;;;;;;;;;;;;;;;1035624;28;851;-41
2022/01/31 00:19:35;;;;;;;;;;;;;;;;;;1035417;28;1276;-41
2022/01/31 00:20:06;;;;;;;;;;;;;;;;;;1035378;28;914;-42
2022/01/31 00:20:36;;;;;;;;;;;;;;;;;;1035289;28;1234;-42
2022/01/31 00:21:07;;;;;;;;;;;;;;;;;;1035604;28;863;-41
2022/01/31 00:21:37;;;;;;;;;;;;;;;;;;1035326;28;922;-42
2022/01/31 00:22:08;;;;;;;;;;;;;;;;;;1035653;28;953;-42
2022/01/31 00:22:39;;;;;;;;;;;;;;;;;;1035364;28;937;-42
2022/01/31 00:23:09;;;;;;;;;;;;;;;;;;1035528;28;993;-42
2022/01/31 00:23:40;;;;;;;;;;;;;;;;;;1035405;28;965;-42
2022/01/31 00:24:11;;;;;;;;;;;;;;;;;;1035487;28;909;-42
2022/01/31 00:24:41;;;;;;;;;;;;;;;;;;1035622;28;974;-42
2022/01/31 00:25:12;;;;;;;;;;;;;;;;;;1035509;28;997;-41
2022/01/31 00:25:42;;;;;;;;;;;;;;;;;;1035263;28;917;-42
2022/01/31 00:26:13;;;;;;;;;;;;;;;;;;1035646;28;902;-41
2022/01/31 00:26:43;;;;;;;;;;;;;;;;;;1035423;28;835;-41
2022/01/31 00:27:13;;;;;;;;;;;;;;;;;;1035693;28;806;-41
2022/01/31 00:27:43;;;;;;;;;;;;;;;;;;1030863;28;1553;-41
2022/01/31 00:28:14;;;;;;;;;;;;;;;;;;1027061;28;905;-41
2022/01/31 00:28:44;;;;;;;;;;;;;;;;;;1027171;28;1283;-41
2022/01/31 00:29:15;;;;;;;;;;;;;;;;;;1027020;28;1751;-41
2022/01/31 00:29:45;;;;;;;;;;;;;;;;;;1031103;28;949;-41
2022/01/31 00:30:16;;;;;;;;;;;;;;;;;;1035485;28;945;-41
2022/01/31 00:30:46;;;;;;;;;;;;;;;;;;1035221;28;1252;-41
2022/01/31 00:31:17;;;;;;;;;;;;;;;;;;1035769;28;1042;-41
2022/01/31 00:31:49;;;;;;;;;;;;;;;;;;1030824;28;1348;-40
2022/01/31 00:32:20;;;;;;;;;;;;;;;;;;1031107;28;841;-41
2022/01/31 00:32:50;;;;;;;;;;;;;;;;;;1027130;28;974;-41
2022/01/31 00:33:21;;;;;;;;;;;;;;;;;;1023105;28;1272;-41
2022/01/31 00:33:51;;;;;;;;;;;;;;;;;;1026927;28;2280;-41
2022/01/31 00:34:22;;;;;;;;;;;;;;;;;;1027119;28;1012;-41
2022/01/31 00:34:52;;;;;;;;;;;;;;;;;;1031093;28;842;-41
2022/01/31 00:35:22;;;;;;;;;;;;;;;;;;1031194;28;1022;-41
2022/01/31 00:35:53;;;;;;;;;;;;;;;;;;1030810;28;1058;-42
2022/01/31 00:36:23;;;;;;;;;;;;;;;;;;1031217;28;1067;-41
2022/01/31 00:36:54;;;;;;;;;;;;;;;;;;1031064;28;949;-41
2022/01/31 00:37:25;;;;;;;;;;;;;;;;;;1035030;28;865;-41
2022/01/31 00:37:56;;;;;;;;;;;;;;;;;;1030976;28;1137;-41
2022/01/31 00:38:26;;;;;;;;;;;;;;;;;;1030957;28;949;-41
2022/01/31 00:38:56;;;;;;;;;;;;;;;;;;1035218;28;938;-41
2022/01/31 00:39:27;;;;;;;;;;;;;;;;;;1035128;28;997;-41
2022/01/31 00:39:57;;;;;;;;;;;;;;;;;;1039005;28;1972;-41
2022/01/31 00:40:27;;;;;;;;;;;;;;;;;;1034990;28;955;-42
2022/01/31 00:40:58;;;;;;;;;;;;;;;;;;1031117;28;886;-41
2022/01/31 00:41:28;;;;;;;;;;;;;;;;;;1031011;28;815;-41
2022/01/31 00:41:59;;;;;;;;;;;;;;;;;;1031088;28;1568;-42
2022/01/31 00:42:30;;;;;;;;;;;;;;;;;;1030955;28;949;-42
2022/01/31 00:43:01;;;;;;;;;;;;;;;;;;1027118;28;1184;-42
2022/01/31 00:43:35;;;;;;;;;;;;;;;;;;1027207;28;997;-42
2022/01/31 00:44:23;;;;;;;;;;;;;;;;;;1031015;28;810;-42
2022/01/31 00:44:57;;;;;;;;;;;;;;;;;;1034052;28;890;-42
2022/01/31 00:45:30;;;;;;;;;;;;;;;;;;1035457;28;950;-41
2022/01/31 00:46:03;;;;;;;;;;;;;;;;;;1035343;28;1017;-41
2022/01/31 00:46:40;;;;;;;;;;;;;;;;;;1030978;28;1537;-41
2022/01/31 00:47:23;;;;;;;;;;;;;;;;;;1031214;28;1008;-41
2022/01/31 00:48:02;;;;;;;;;;;;;;;;;;1030903;28;941;-40
2022/01/31 00:48:40;;;;;;;;;;;;;;;;;;1030818;28;1218;-41
2022/01/31 00:49:22;;;;;;;;;;;;;;;;;;1026865;28;1388;-41
2022/01/31 00:50:04;;;;;;;;;;;;;;;;;;1026916;28;914;-41
2022/01/31 00:50:39;;;;;;;;;;;;;;;;;;1026962;28;1464;-41
2022/01/31 00:51:09;;;;;;;;;;;;;;;;;;1030621;28;1275;-41
2022/01/31 00:51:40;;;;;;;;;;;;;;;;;;1031049;28;783;-41
2022/01/31 00:52:10;;;;;;;;;;;;;;;;;;1031739;28;829;-39
2022/01/31 00:52:41;;;;;;;;;;;;;;;;;;1035094;28;986;-41
2022/01/31 00:53:11;;;;;;;;;;;;;;;;;;1035374;28;891;-41
2022/01/31 00:53:43;;;;;;;;;;;;;;;;;;1035390;28;990;-41
2022/01/31 00:54:14;;;;;;;;;;;;;;;;;;1035242;28;906;-41
2022/01/31 00:54:44;;;;;;;;;;;;;;;;;;1035575;28;890;-41
2022/01/31 00:55:15;;;;;;;;;;;;;;;;;;1035262;28;1059;-41
2022/01/31 00:55:45;;;;;;;;;;;;;;;;;;1035370;28;891;-41
2022/01/31 00:56:15;;;;;;;;;;;;;;;;;;1031047;28;1005;-41
2022/01/31 00:56:46;;;;;;;;;;;;;;;;;;1030820;28;886;-41
2022/01/31 00:57:16;;;;;;;;;;;;;;;;;;1031139;28;814;-41
2022/01/31 00:57:47;;;;;;;;;;;;;;;;;;1026904;28;1313;-41
2022/01/31 00:58:17;;;;;;;;;;;;;;;;;;1031089;28;937;-41
2022/01/31 00:58:49;;;;;;;;;;;;;;;;;;1026965;28;1206;-41
2022/01/31 00:59:19;;;;;;;;;;;;;;;;;;1027113;28;903;-41
2022/01/31 00:59:51;;;;;;;;;;;;;;;;;;1026747;28;1926;-41
2022/01/31 01:00:22;;;;;;;;;;;;;;;;;;1027272;28;1316;-41
2022/01/31 01:00:52;;;;;;;;;;;;;;;;;;1030896;28;930;-41
2022/01/31 01:01:23;;;;;;;;;;;;;;;;;;1031101;28;1003;-41
2022/01/31 01:01:53;;;;;;;;;;;;;;;;;;1026709;28;1809;-41
2022/01/31 01:02:24;;;;;;;;;;;;;;;;;;1031190;28;858;-41
2022/01/31 01:02:54;;;;;;;;;;;;;;;;;;1031005;28;942;-41
2022/01/31 01:03:27;;;;;;;;;;;;;;;;;;1035252;28;1208;-41
2022/01/31 01:03:57;;;;;;;;;;;;;;;;;;1039088;28;854;-41
2022/01/31 01:04:28;;;;;;;;;;;;;;;;;;1039163;28;850;-42
2022/01/31 01:04:58;;;;;;;;;;;;;;;;;;1034959;28;914;-42
2022/01/31 01:05:28;;;;;;;;;;;;;;;;;;1026896;28;1341;-42
2022/01/31 01:06:00;;;;;;;;;;;;;;;;;;1030699;28;1292;-42
2022/01/31 01:06:31;;;;;;;;;;;;;;;;;;1027069;28;1136;-41
2022/01/31 01:07:01;;;;;;;;;;;;;;;;;;1031356;28;869;-42
2022/01/31 01:07:31;;;;;;;;;;;;;;;;;;1030789;28;1196;-42
2022/01/31 01:08:03;;;;;;;;;;;;;;;;;;1027063;28;907;-41
2022/01/31 01:08:33;;;;;;;;;;;;;;;;;;1030788;28;933;-41
2022/01/31 01:09:04;;;;;;;;;;;;;;;;;;1031278;28;869;-41
2022/01/31 01:09:34;;;;;;;;;;;;;;;;;;1035382;28;926;-41
2022/01/31 01:10:05;;;;;;;;;;;;;;;;;;1030709;28;1161;-41
2022/01/31 01:10:37;;;;;;;;;;;;;;;;;;1030943;28;788;-41
2022/01/31 01:11:08;;;;;;;;;;;;;;;;;;1030991;28;1062;-41
2022/01/31 01:11:38;;;;;;;;;;;;;;;;;;1035078;28;1350;-41
2022/01/31 01:12:09;;;;;;;;;;;;;;;;;;1039091;28;903;-41
2022/01/31 01:12:39;;;;;;;;;;;;;;;;;;1034873;28;1427;-42
2022/01/31 01:13:11;;;;;;;;;;;;;;;;;;1030717;28;1473;-41
2022/01/31 01:13:41;;;;;;;;;;;;;;;;;;1026982;28;961;-42
2022/01/31 01:14:11;;;;;;;;;;;;;;;;;;1026958;28;795;-41
2022/01/31 01:14:42;;;;;;;;;;;;;;;;;;1026949;28;1149;-42
2022/01/31 01:15:13;;;;;;;;;;;;;;;;;;1026801;28;1308;-42
2022/01/31 01:15:44;;;;;;;;;;;;;;;;;;1026874;28;917;-42
2022/01/31 01:16:15;;;;;;;;;;;;;;;;;;1027110;28;1125;-42
2022/01/31 01:16:46;;;;;;;;;;;;;;;;;;1027053;28;1265;-42
2022/01/31 01:17:17;;;;;;;;;;;;;;;;;;1031179;28;910;-42
2022/01/31 01:17:47;;;;;;;;;;;;;;;;;;1030873;28;950;-42
2022/01/31 01:18:19;;;;;;;;;;;;;;;;;;1027001;28;1379;-41
2022/01/31 01:18:49;;;;;;;;;;;;;;;;;;1031088;28;949;-42
2022/01/31 01:19:20;;;;;;;;;;;;;;;;;;1030784;28;1335;-42
2022/01/31 01:19:50;;;;;;;;;;;;;;;;;;1026045;28;1915;-41
2022/01/31 01:20:21;;;;;;;;;;;;;;;;;;1031621;28;1103;-42
2022/01/31 01:20:52;;;;;;;;;;;;;;;;;;1030792;28;1176;-42
2022/01/31 01:21:22;;;;;;;;;;;;;;;;;;1030999;28;1169;-42
2022/01/31 01:21:52;;;;;;;;;;;;;;;;;;1030756;28;858;-42
2022/01/31 01:22:23;;;;;;;;;;;;;;;;;;1030885;28;1187;-42
2022/01/31 01:22:53;;;;;;;;;;;;;;;;;;1030940;28;1176;-41
2022/01/31 01:23:23;;;;;;;;;;;;;;;;;;1030865;28;890;-42
2022/01/31 01:23:54;;;;;;;;;;;;;;;;;;1026728;28;1189;-41
2022/01/31 01:24:25;;;;;;;;;;;;;;;;;;1026961;28;929;-41
2022/01/31 01:24:55;;;;;;;;;;;;;;;;;;1030898;28;933;-42
2022/01/31 01:25:25;;;;;;;;;;;;;;;;;;1031096;28;1174;-41
2022/01/31 01:25:56;;;;;;;;;;;;;;;;;;1034734;28;924;-41
2022/01/31 01:26:26;;;;;;;;;;;;;;;;;;1030928;28;945;-42
2022/01/31 01:27:02;;;;;;;;;;;;;;;;;;1031596;28;1330;-41
2022/01/31 01:27:32;;;;;;;;;;;;;;;;;;1030747;28;1259;-41
2022/01/31 01:28:03;;;;;;;;;;;;;;;;;;1027709;28;1087;-42
2022/01/31 01:28:33;;;;;;;;;;;;;;;;;;1026760;28;1267;-41
2022/01/31 01:29:04;;;;;;;;;;;;;;;;;;1026748;28;1161;-42
2022/01/31 01:29:35;;;;;;;;;;;;;;;;;;1026931;28;916;-41
2022/01/31 01:30:06;;;;;;;;;;;;;;;;;;1026695;28;931;-42
2022/01/31 01:30:37;;;;;;;;;;;;;;;;;;1031124;28;1060;-41
2022/01/31 01:31:09;;;;;;;;;;;;;;;;;;1030834;28;1380;-41
2022/01/31 01:31:45;;;;;;;;;;;;;;;;;;1027415;28;1127;-41
2022/01/31 01:32:16;;;;;;;;;;;;;;;;;;1027183;28;1448;-42
2022/01/31 01:32:59;;;;;;;;;;;;;;;;;;1023535;28;1195;-41
2022/01/31 01:33:37;;;;;;;;;;;;;;;;;;1030683;28;1092;-42
2022/01/31 01:34:08;;;;;;;;;;;;;;;;;;1029524;28;1190;-41
2022/01/31 01:34:38;;;;;;;;;;;;;;;;;;1027013;28;2274;-42
2022/01/31 01:35:09;;;;;;;;;;;;;;;;;;1027622;28;1029;-42
2022/01/31 01:35:39;;;;;;;;;;;;;;;;;;1030934;28;934;-42
2022/01/31 01:36:10;;;;;;;;;;;;;;;;;;1030808;28;1117;-41
2022/01/31 01:36:43;;;;;;;;;;;;;;;;;;1030863;28;1169;-42
2022/01/31 01:37:13;;;;;;;;;;;;;;;;;;1030877;28;1025;-41
2022/01/31 01:37:45;;;;;;;;;;;;;;;;;;1027186;28;1623;-41
2022/01/31 01:38:17;;;;;;;;;;;;;;;;;;1027343;28;1269;-42
2022/01/31 01:38:49;;;;;;;;;;;;;;;;;;1031001;28;1101;-41
2022/01/31 01:39:19;;;;;;;;;;;;;;;;;;1031220;28;895;-40
2022/01/31 01:39:50;;;;;;;;;;;;;;;;;;1031203;28;1983;-41
2022/01/31 01:40:20;;;;;;;;;;;;;;;;;;1034838;28;849;-41
2022/01/31 01:40:51;;;;;;;;;;;;;;;;;;1030635;28;1293;-41
2022/01/31 01:41:23;;;;;;;;;;;;;;;;;;1026989;28;1323;-41
2022/01/31 01:41:53;;;;;;;;;;;;;;;;;;1022711;28;1150;-41
2022/01/31 01:42:25;;;;;;;;;;;;;;;;;;1023334;28;1209;-41
2022/01/31 01:42:55;;;;;;;;;;;;;;;;;;1023102;28;1165;-41
2022/01/31 01:43:27;;;;;;;;;;;;;;;;;;1026801;28;965;-41
2022/01/31 01:43:57;;;;;;;;;;;;;;;;;;1026984;28;1299;-41
2022/01/31 01:44:48;;;;;;;;;;;;;;;;;;1030945;28;1390;-40
2022/01/31 01:45:21;;;;;;;;;;;;;;;;;;1030865;28;1571;-41
2022/01/31 01:45:53;;;;;;;;;;;;;;;;;;1030604;28;835;-41
2022/01/31 01:46:24;;;;;;;;;;;;;;;;;;1030243;28;1209;-41
2022/01/31 01:46:55;;;;;;;;;;;;;;;;;;1027037;28;1219;-41
2022/01/31 01:47:25;;;;;;;;;;;;;;;;;;1031017;28;854;-41
2022/01/31 01:47:56;;;;;;;;;;;;;;;;;;1030735;28;895;-41
2022/01/31 01:48:27;;;;;;;;;;;;;;;;;;1034801;28;835;-41
2022/01/31 01:48:59;;;;;;;;;;;;;;;;;;1034915;28;1297;-41
2022/01/31 01:49:29;;;;;;;;;;;;;;;;;;1034867;28;931;-41
2022/01/31 01:50:00;;;;;;;;;;;;;;;;;;1034710;28;922;-41
2022/01/31 01:50:30;;;;;;;;;;;;;;;;;;1034796;28;1029;-41
2022/01/31 01:51:01;;;;;;;;;;;;;;;;;;1035111;28;894;-41
2022/01/31 01:51:32;;;;;;;;;;;;;;;;;;1034918;28;1176;-41
2022/01/31 01:52:03;;;;;;;;;;;;;;;;;;1034694;28;965;-41
2022/01/31 01:52:33;;;;;;;;;;;;;;;;;;1034910;28;889;-41
2022/01/31 01:53:04;;;;;;;;;;;;;;;;;;1034507;28;939;-41
2022/01/31 01:53:35;;;;;;;;;;;;;;;;;;1034701;28;2478;-41
2022/01/31 01:54:05;;;;;;;;;;;;;;;;;;1034726;28;850;-41
2022/01/31 01:54:35;;;;;;;;;;;;;;;;;;1034924;28;949;-41
2022/01/31 01:55:06;;;;;;;;;;;;;;;;;;1034708;28;909;-41
2022/01/31 01:55:37;;;;;;;;;;;;;;;;;;1035100;28;1236;-41
2022/01/31 01:56:09;;;;;;;;;;;;;;;;;;1030487;28;1200;-41
2022/01/31 01:56:41;;;;;;;;;;;;;;;;;;1026834;28;1174;-40
2022/01/31 01:57:12;;;;;;;;;;;;;;;;;;1023150;28;1479;-41
2022/01/31 01:57:44;;;;;;;;;;;;;;;;;;1023125;28;1418;-41
2022/01/31 01:58:16;;;;;;;;;;;;;;;;;;1023002;28;1210;-41
2022/01/31 01:58:49;;;;;;;;;;;;;;;;;;1023547;28;1524;-41
2022/01/31 01:59:19;;;;;;;;;;;;;;;;;;1023120;28;1285;-41
2022/01/31 02:00:15;;;;;;;;;;;;;;;;;;1029292;28;1264;-42
2022/01/31 02:00:50;;;;;;;;;;;;;;;;;;1034530;28;841;-41
2022/01/31 02:01:26;;;;;;;;;;;;;;;;;;1034732;28;1220;-40
2022/01/31 02:02:04;;;;;;;;;;;;;;;;;;1030661;28;1196;-41
2022/01/31 02:02:35;;;;;;;;;;;;;;;;;;1026599;28;1382;-41
2022/01/31 02:03:07;;;;;;;;;;;;;;;;;;1028144;28;1217;-41
2022/01/31 02:03:39;;;;;;;;;;;;;;;;;;1031260;28;1138;-41
2022/01/31 02:04:09;;;;;;;;;;;;;;;;;;1030647;28;1189;-42
2022/01/31 02:04:43;;;;;;;;;;;;;;;;;;1030727;28;1297;-41
2022/01/31 02:05:25;;;;;;;;;;;;;;;;;;1026705;28;1334;-41
2022/01/31 02:05:56;;;;;;;;;;;;;;;;;;1024616;28;1198;-41
2022/01/31 02:06:27;;;;;;;;;;;;;;;;;;1028392;28;1363;-41
2022/01/31 02:06:57;;;;;;;;;;;;;;;;;;1026623;28;1158;-42
2022/01/31 02:07:28;;;;;;;;;;;;;;;;;;1022733;28;1416;-41
2022/01/31 02:07:58;;;;;;;;;;;;;;;;;;1022775;29;1172;-41
2022/01/31 02:08:29;;;;;;;;;;;;;;;;;;1022453;28;1198;-42
2022/01/31 02:09:01;;;;;;;;;;;;;;;;;;1026969;28;1550;-42
2022/01/31 02:09:42;;;;;;;;;;;;;;;;;;1031475;28;1213;-41
2022/01/31 02:10:13;;;;;;;;;;;;;;;;;;1034563;28;1341;-41
2022/01/31 02:10:56;;;;;;;;;;;;;;;;;;1027339;28;1179;-42
2022/01/31 02:11:42;;;;;;;;;;;;;;;;;;1030610;28;1265;-41
2022/01/31 02:12:13;;;;;;;;;;;;;;;;;;1034833;28;1061;-41
2022/01/31 02:12:46;;;;;;;;;;;;;;;;;;1032718;28;1381;-41
2022/01/31 02:13:25;;;;;;;;;;;;;;;;;;1029096;28;1472;-41
2022/01/31 02:14:22;;;;;;;;;;;;;;;;;;1014263;29;1048;-41
2022/01/31 02:15:11;;;;;;;;;;;;;;;;;;1030428;28;1189;-42
2022/01/31 02:16:00;;;;;;;;;;;;;;;;;;1034934;28;1023;-41
2022/01/31 02:16:51;;;;;;;;;;;;;;;;;;1034584;28;1170;-41
2022/01/31 02:17:31;;;;;;;;;;;;;;;;;;1034724;28;1476;-41
2022/01/31 02:18:12;;;;;;;;;;;;;;;;;;1035023;28;1345;-41
2022/01/31 02:18:51;;;;;;;;;;;;;;;;;;1034704;28;898;-41
2022/01/31 02:19:41;;;;;;;;;;;;;;;;;;1018228;29;1919;-41
2022/01/31 02:20:12;;;;;;;;;;;;;;;;;;1018146;29;1045;-41
2022/01/31 02:20:43;;;;;;;;;;;;;;;;;;1028279;28;1000;-41
2022/01/31 02:21:16;;;;;;;;;;;;;;;;;;1035100;28;900;-41
2022/01/31 02:21:50;;;;;;;;;;;;;;;;;;1034928;28;1000;-42
2022/01/31 02:22:54;;;;;;;;;;;;;;;;;;1034705;28;1309;-41
2022/01/31 02:23:32;;;;;;;;;;;;;;;;;;1030478;28;1436;-41
2022/01/31 02:24:22;;;;;;;;;;;;;;;;;;1030359;28;1258;-42
2022/01/31 02:25:10;;;;;;;;;;;;;;;;;;1031351;28;1087;-41
2022/01/31 02:26:03;;;;;;;;;;;;;;;;;;1034648;28;918;-42
2022/01/31 02:26:52;;;;;;;;;;;;;;;;;;1032095;28;1303;-43
2022/01/31 02:27:33;;;;;;;;;;;;;;;;;;1034602;28;1659;-41
2022/01/31 02:28:06;;;;;;;;;;;;;;;;;;1034598;28;1333;-41
2022/01/31 02:28:38;;;;;;;;;;;;;;;;;;1032432;28;1272;-41
2022/01/31 02:29:11;;;;;;;;;;;;;;;;;;1034714;28;1381;-41
2022/01/31 02:29:41;;;;;;;;;;;;;;;;;;1034603;28;935;-41
2022/01/31 02:30:14;;;;;;;;;;;;;;;;;;1030616;28;927;-41
2022/01/31 02:30:48;;;;;;;;;;;;;;;;;;1027614;28;1337;-41
2022/01/31 02:31:18;;;;;;;;;;;;;;;;;;1026570;28;1158;-41
2022/01/31 02:31:51;;;;;;;;;;;;;;;;;;1023362;28;1283;-42
2022/01/31 02:32:22;;;;;;;;;;;;;;;;;;1027020;28;823;-42
2022/01/31 02:32:56;;;;;;;;;;;;;;;;;;1027750;28;1216;-42
2022/01/31 02:33:28;;;;;;;;;;;;;;;;;;1030384;28;867;-41
2022/01/31 02:33:58;;;;;;;;;;;;;;;;;;1030581;28;1350;-42
2022/01/31 02:34:29;;;;;;;;;;;;;;;;;;1026701;28;1250;-42
2022/01/31 02:34:59;;;;;;;;;;;;;;;;;;1026799;28;1210;-42
2022/01/31 02:35:30;;;;;;;;;;;;;;;;;;1030802;28;953;-42
2022/01/31 02:36:02;;;;;;;;;;;;;;;;;;1026144;28;1296;-42
2022/01/31 02:36:32;;;;;;;;;;;;;;;;;;1027054;28;1211;-42
2022/01/31 02:37:03;;;;;;;;;;;;;;;;;;1026620;28;1029;-42
2022/01/31 02:37:34;;;;;;;;;;;;;;;;;;1026735;28;1174;-42
2022/01/31 02:38:16;;;;;;;;;;;;;;;;;;1028440;28;976;-42
2022/01/31 02:38:54;;;;;;;;;;;;;;;;;;1026669;28;1300;-42
2022/01/31 02:39:24;;;;;;;;;;;;;;;;;;1029089;28;1358;-42
2022/01/31 02:39:55;;;;;;;;;;;;;;;;;;1027502;28;1890;-42
2022/01/31 02:40:26;;;;;;;;;;;;;;;;;;1030415;28;1114;-42
2022/01/31 02:40:57;;;;;;;;;;;;;;;;;;1026570;28;1284;-42
2022/01/31 02:41:29;;;;;;;;;;;;;;;;;;1022668;28;1894;-42
2022/01/31 02:41:59;;;;;;;;;;;;;;;;;;1022733;28;1517;-41
2022/01/31 02:42:29;;;;;;;;;;;;;;;;;;1022740;28;1313;-42
2022/01/31 02:43:00;;;;;;;;;;;;;;;;;;1026892;28;934;-42
2022/01/31 02:43:33;;;;;;;;;;;;;;;;;;1026738;28;1197;-42
2022/01/31 02:44:08;;;;;;;;;;;;;;;;;;1031028;28;1452;-42
2022/01/31 02:44:41;;;;;;;;;;;;;;;;;;1030537;28;1196;-42
2022/01/31 02:45:16;;;;;;;;;;;;;;;;;;1030525;28;1332;-42
2022/01/31 02:45:47;;;;;;;;;;;;;;;;;;1030396;28;1143;-42
2022/01/31 02:46:17;;;;;;;;;;;;;;;;;;1031547;28;1215;-42
2022/01/31 02:46:55;;;;;;;;;;;;;;;;;;1034575;28;959;-41
2022/01/31 02:47:29;;;;;;;;;;;;;;;;;;1035960;28;811;-41
2022/01/31 02:48:02;;;;;;;;;;;;;;;;;;1034533;28;1370;-42
2022/01/31 02:48:36;;;;;;;;;;;;;;;;;;1030309;28;1587;-42
2022/01/31 02:49:07;;;;;;;;;;;;;;;;;;1026621;28;1178;-41
2022/01/31 02:50:00;;;;;;;;;;;;;;;;;;1023228;28;916;-41
2022/01/31 02:50:30;;;;;;;;;;;;;;;;;;1029669;28;1489;-41
2022/01/31 02:51:03;;;;;;;;;;;;;;;;;;1033313;28;1003;-42
2022/01/31 02:51:34;;;;;;;;;;;;;;;;;;1030693;28;1161;-43
2022/01/31 02:52:06;;;;;;;;;;;;;;;;;;1026865;28;1248;-42
2022/01/31 02:52:37;;;;;;;;;;;;;;;;;;1026475;28;2511;-42
2022/01/31 02:53:12;;;;;;;;;;;;;;;;;;1022960;28;1302;-42
2022/01/31 02:53:45;;;;;;;;;;;;;;;;;;1023291;28;1300;-42
2022/01/31 02:54:15;;;;;;;;;;;;;;;;;;1023669;28;1119;-42
2022/01/31 02:54:46;;;;;;;;;;;;;;;;;;1023522;28;1313;-42
2022/01/31 02:55:17;;;;;;;;;;;;;;;;;;1022714;28;1577;-43
2022/01/31 02:55:48;;;;;;;;;;;;;;;;;;1022523;28;1166;-42
2022/01/31 02:56:20;;;;;;;;;;;;;;;;;;1022982;28;1277;-42
2022/01/31 02:56:51;;;;;;;;;;;;;;;;;;1026888;28;957;-43
2022/01/31 02:57:22;;;;;;;;;;;;;;;;;;1027030;28;1276;-43
2022/01/31 02:57:52;;;;;;;;;;;;;;;;;;1026350;28;1014;-43
2022/01/31 02:58:25;;;;;;;;;;;;;;;;;;1026526;28;1271;-42
2022/01/31 02:58:55;;;;;;;;;;;;;;;;;;1026480;28;1156;-42
2022/01/31 02:59:26;;;;;;;;;;;;;;;;;;1026652;28;1476;-42
2022/01/31 02:59:56;;;;;;;;;;;;;;;;;;1030690;28;1970;-42
2022/01/31 03:00:30;;;;;;;;;;;;;;;;;;1034561;28;1044;-42
2022/01/31 03:01:09;;;;;;;;;;;;;;;;;;1032032;28;1511;-42
2022/01/31 03:01:44;;;;;;;;;;;;;;;;;;1030247;28;1165;-42
2022/01/31 03:02:15;;;;;;;;;;;;;;;;;;1030758;28;954;-42
2022/01/31 03:02:45;;;;;;;;;;;;;;;;;;1031120;28;862;-42
2022/01/31 03:03:16;;;;;;;;;;;;;;;;;;1030633;28;1255;-42
2022/01/31 03:03:47;;;;;;;;;;;;;;;;;;1030373;28;1283;-42
2022/01/31 03:04:17;;;;;;;;;;;;;;;;;;1030482;28;966;-42
2022/01/31 03:04:48;;;;;;;;;;;;;;;;;;1026790;28;1177;-41
2022/01/31 03:05:18;;;;;;;;;;;;;;;;;;1030405;28;928;-42
2022/01/31 03:05:49;;;;;;;;;;;;;;;;;;1030374;28;2238;-41
2022/01/31 03:06:19;;;;;;;;;;;;;;;;;;1026670;28;1272;-42
2022/01/31 03:06:50;;;;;;;;;;;;;;;;;;1026411;28;1141;-41
2022/01/31 03:07:24;;;;;;;;;;;;;;;;;;1026530;28;1315;-41
2022/01/31 03:07:55;;;;;;;;;;;;;;;;;;1027056;28;861;-42
2022/01/31 03:08:27;;;;;;;;;;;;;;;;;;1031386;28;875;-41
2022/01/31 03:09:00;;;;;;;;;;;;;;;;;;1031256;28;1098;-41
2022/01/31 03:09:39;;;;;;;;;;;;;;;;;;1026259;28;1505;-42
2022/01/31 03:10:12;;;;;;;;;;;;;;;;;;1026357;28;1236;-42
2022/01/31 03:10:43;;;;;;;;;;;;;;;;;;1024082;28;1516;-42
2022/01/31 03:11:15;;;;;;;;;;;;;;;;;;1023109;28;1515;-42
2022/01/31 03:11:55;;;;;;;;;;;;;;;;;;1027928;28;1369;-42
2022/01/31 03:12:30;;;;;;;;;;;;;;;;;;1030453;28;1140;-42
2022/01/31 03:13:06;;;;;;;;;;;;;;;;;;1033360;28;1128;-42
2022/01/31 03:13:42;;;;;;;;;;;;;;;;;;1030153;28;1604;-42
2022/01/31 03:14:16;;;;;;;;;;;;;;;;;;1030555;28;1349;-42
2022/01/31 03:14:50;;;;;;;;;;;;;;;;;;1030625;28;1288;-42
2022/01/31 03:15:40;;;;;;;;;;;;;;;;;;1030086;28;1059;-42
2022/01/31 03:16:49;;;;;;;;;;;;;;;;;;1034764;28;1023;-42
2022/01/31 03:17:34;;;;;;;;;;;;;;;;;;1034646;28;1384;-42
2022/01/31 03:18:06;;;;;;;;;;;;;;;;;;1030254;28;1157;-42
2022/01/31 03:18:36;;;;;;;;;;;;;;;;;;1026437;28;1201;-42
2022/01/31 03:19:07;;;;;;;;;;;;;;;;;;1026979;28;784;-42
2022/01/31 03:19:40;;;;;;;;;;;;;;;;;;1026485;28;1280;-42
2022/01/31 03:20:10;;;;;;;;;;;;;;;;;;1026870;28;1899;-42
2022/01/31 03:20:41;;;;;;;;;;;;;;;;;;1022160;28;1186;-42
2022/01/31 03:21:12;;;;;;;;;;;;;;;;;;1018936;29;1257;-42
2022/01/31 03:21:43;;;;;;;;;;;;;;;;;;1018534;29;1151;-42
2022/01/31 03:22:13;;;;;;;;;;;;;;;;;;1022750;28;939;-42
2022/01/31 03:22:44;;;;;;;;;;;;;;;;;;1026377;28;978;-42
2022/01/31 03:23:14;;;;;;;;;;;;;;;;;;1030868;28;827;-42
2022/01/31 03:23:49;;;;;;;;;;;;;;;;;;1030196;28;1415;-42
2022/01/31 03:24:19;;;;;;;;;;;;;;;;;;1026368;28;1537;-42
2022/01/31 03:24:50;;;;;;;;;;;;;;;;;;1026425;28;956;-42
2022/01/31 03:25:20;;;;;;;;;;;;;;;;;;1022881;28;1175;-42
2022/01/31 03:25:50;;;;;;;;;;;;;;;;;;1022438;28;1182;-42
2022/01/31 03:26:21;;;;;;;;;;;;;;;;;;1026440;28;967;-42
2022/01/31 03:26:52;;;;;;;;;;;;;;;;;;1022455;28;1422;-43
2022/01/31 03:27:23;;;;;;;;;;;;;;;;;;1026553;28;1138;-42
2022/01/31 03:27:53;;;;;;;;;;;;;;;;;;1030287;28;1598;-42
2022/01/31 03:28:23;;;;;;;;;;;;;;;;;;1030480;28;811;-42
2022/01/31 03:28:54;;;;;;;;;;;;;;;;;;1026419;28;1319;-42
2022/01/31 03:29:24;;;;;;;;;;;;;;;;;;1026397;28;926;-42
2022/01/31 03:29:55;;;;;;;;;;;;;;;;;;1026401;28;1485;-42
2022/01/31 03:30:25;;;;;;;;;;;;;;;;;;1022235;29;1534;-42
2022/01/31 03:30:59;;;;;;;;;;;;;;;;;;1022428;29;907;-42
2022/01/31 03:31:30;;;;;;;;;;;;;;;;;;1023766;28;1036;-42
2022/01/31 03:32:02;;;;;;;;;;;;;;;;;;1026895;28;1332;-42
2022/01/31 03:32:33;;;;;;;;;;;;;;;;;;1030529;28;950;-41
2022/01/31 03:33:03;;;;;;;;;;;;;;;;;;1026423;28;1269;-41
2022/01/31 03:33:34;;;;;;;;;;;;;;;;;;1026549;28;1688;-42
2022/01/31 03:34:05;;;;;;;;;;;;;;;;;;1026325;28;1362;-41
2022/01/31 03:34:35;;;;;;;;;;;;;;;;;;1022640;28;1324;-42
2022/01/31 03:35:07;;;;;;;;;;;;;;;;;;1022360;28;1546;-41
2022/01/31 03:35:37;;;;;;;;;;;;;;;;;;1022690;28;1061;-41
2022/01/31 03:36:08;;;;;;;;;;;;;;;;;;1022447;28;1477;-41
2022/01/31 03:36:38;;;;;;;;;;;;;;;;;;1022594;28;1262;-42
2022/01/31 03:37:12;;;;;;;;;;;;;;;;;;1022466;29;1357;-41
2022/01/31 03:37:43;;;;;;;;;;;;;;;;;;1022533;28;1459;-42
2022/01/31 03:38:14;;;;;;;;;;;;;;;;;;1022505;28;1612;-42
2022/01/31 03:38:45;;;;;;;;;;;;;;;;;;1022306;29;1279;-42
2022/01/31 03:39:15;;;;;;;;;;;;;;;;;;1014809;29;1167;-42
2022/01/31 03:39:46;;;;;;;;;;;;;;;;;;1018298;29;1969;-42
2022/01/31 03:40:16;;;;;;;;;;;;;;;;;;1022425;29;1288;-42
2022/01/31 03:40:46;;;;;;;;;;;;;;;;;;1022446;28;784;-42
2022/01/31 03:41:18;;;;;;;;;;;;;;;;;;1030412;28;1406;-42
2022/01/31 03:41:48;;;;;;;;;;;;;;;;;;1030480;28;879;-42
2022/01/31 03:42:19;;;;;;;;;;;;;;;;;;1030431;28;1158;-42
2022/01/31 03:42:49;;;;;;;;;;;;;;;;;;1030093;28;997;-43
2022/01/31 03:43:20;;;;;;;;;;;;;;;;;;1030068;28;1297;-42
2022/01/31 03:43:52;;;;;;;;;;;;;;;;;;1026517;28;1385;-42
2022/01/31 03:44:22;;;;;;;;;;;;;;;;;;1026387;28;1279;-42
2022/01/31 03:44:57;;;;;;;;;;;;;;;;;;1025517;28;1146;-42
2022/01/31 03:45:32;;;;;;;;;;;;;;;;;;1019189;29;1285;-42
2022/01/31 03:46:17;;;;;;;;;;;;;;;;;;1021539;29;2303;-42
2022/01/31 03:46:47;;;;;;;;;;;;;;;;;;1021039;29;1234;-41
2022/01/31 03:47:22;;;;;;;;;;;;;;;;;;1025076;28;942;-42
2022/01/31 03:47:52;;;;;;;;;;;;;;;;;;1022704;28;1341;-41
2022/01/31 03:48:24;;;;;;;;;;;;;;;;;;1027064;28;941;-42
2022/01/31 03:48:57;;;;;;;;;;;;;;;;;;1026314;28;1785;-41